Time;durP1;ratioP1;P1;durP2;ratioP2;P2;SDS_P1;SDS_P2;PMS_P1;PMS_P2;Temp;Humidity;BMP_temperature;BMP_pressure;BME280_temperature;BME280_humidity;BME280_pressure;Samples;Min_cycle;Max_cycle;Signal;HPM_P1;HPM_P2
2021/01/04 00:01:42;;;;;;;;;;;;;;;9.59;56.32;100720.00;5028140;28;19932;-46
2021/01/04 00:04:26;;;;;;;;;;;;;;;9.79;55.55;100715.09;5029869;28;19979;-43
2021/01/04 00:07:10;;;;;;;;;;;;;;;9.88;53.50;100706.72;5020137;28;19976;-44
2021/01/04 00:09:45;;;;;;;;;;;;;;;9.90;54.22;100702.72;5029548;28;19917;-45
2021/01/04 00:12:16;;;;;;;;;;;;;;;9.88;54.62;100698.69;5030207;28;19932;-43
2021/01/04 00:14:52;;;;;;;;;;;;;;;9.94;55.62;100700.41;5032127;28;20391;-43
2021/01/04 00:17:28;;;;;;;;;;;;;;;9.88;56.46;100694.13;5030671;28;19932;-44
2021/01/04 00:19:59;;;;;;;;;;;;;;;9.96;55.61;100699.13;5032187;28;19944;-45
2021/01/04 00:22:33;;;;;;;;;;;;;;;9.98;55.66;100688.19;5032391;28;19995;-43
2021/01/04 00:25:06;;;;;;;;;;;;;;;9.81;55.06;100696.13;5032304;28;19924;-42
2021/01/04 00:27:35;;;;;;;;;;;;;;;9.85;55.67;100705.31;5026811;28;19948;-46
2021/01/04 00:30:05;;;;;;;;;;;;;;;9.56;57.89;100713.25;5031851;28;19924;-45
2021/01/04 00:32:33;;;;;;;;;;;;;;;9.49;59.32;100714.44;5026626;28;20023;-44
2021/01/04 00:35:00;;;;;;;;;;;;;;;9.57;58.89;100709.53;5030684;28;20287;-43
2021/01/04 00:37:25;;;;;;;;;;;;;;;9.60;57.81;100686.81;5025635;28;19932;-46
2021/01/04 00:40:09;;;;;;;;;;;;;;;9.74;57.38;100682.03;5026124;28;19917;-45
2021/01/04 00:42:34;;;;;;;;;;;;;;;9.73;58.11;100680.41;5024460;28;20648;-45
2021/01/04 00:45:00;;;;;;;;;;;;;;;9.78;58.91;100689.38;5031668;28;20003;-45
2021/01/04 00:47:31;;;;;;;;;;;;;;;9.87;58.00;100686.31;5025820;28;19929;-45
2021/01/04 00:50:04;;;;;;;;;;;;;;;9.90;57.46;100694.69;5027719;28;19917;-44
2021/01/04 00:52:41;;;;;;;;;;;;;;;9.86;58.22;100688.19;5026236;28;19943;-43
2021/01/04 00:55:25;;;;;;;;;;;;;;;9.94;58.75;100693.19;5026044;28;19921;-45
2021/01/04 00:58:08;;;;;;;;;;;;;;;9.92;58.55;100689.94;5028615;28;19917;-44
2021/01/04 01:00:37;;;;;;;;;;;;;;;9.94;59.11;100684.31;5026262;28;20692;-44
2021/01/04 01:03:08;;;;;;;;;;;;;;;9.83;60.62;100699.38;5031534;28;20027;-48
2021/01/04 01:05:41;;;;;;;;;;;;;;;9.55;62.03;100697.41;5026305;28;19947;-45
2021/01/04 01:08:13;;;;;;;;;;;;;;;9.68;61.55;100691.84;5031184;28;20010;-43
2021/01/04 01:10:44;;;;;;;;;;;;;;;9.82;60.69;100692.41;5027248;28;20639;-43
2021/01/04 01:13:15;;;;;;;;;;;;;;;9.73;61.65;100696.47;5031689;28;20386;-47
2021/01/04 01:16:06;;;;;;;;;;;;;;;9.70;61.93;100692.41;5031364;28;19925;-46
2021/01/04 01:18:41;;;;;;;;;;;;;;;9.72;62.76;100686.81;5020335;28;19925;-46
2021/01/04 01:21:07;;;;;;;;;;;;;;;9.74;62.50;100688.19;5018648;28;19928;-44
2021/01/04 01:23:33;;;;;;;;;;;;;;;9.68;63.04;100685.66;5020440;28;19916;-43
2021/01/04 01:26:13;;;;;;;;;;;;;;;9.65;63.20;100682.41;5030860;28;19925;-43
2021/01/04 01:28:57;;;;;;;;;;;;;;;9.50;64.19;100683.91;5026682;28;19921;-45
2021/01/04 01:31:41;;;;;;;;;;;;;;;9.66;63.70;100683.22;5030150;28;20310;-44
2021/01/04 01:34:06;;;;;;;;;;;;;;;9.69;63.26;100676.56;5041106;28;19925;-45
2021/01/04 01:36:43;;;;;;;;;;;;;;;9.60;64.17;100686.81;5030390;28;20604;-47
2021/01/04 01:39:26;;;;;;;;;;;;;;;9.54;63.82;100688.59;5030794;28;19924;-44
2021/01/04 01:42:11;;;;;;;;;;;;;;;9.67;63.26;100687.53;5030712;28;20385;-44
2021/01/04 01:44:46;;;;;;;;;;;;;;;9.82;62.95;100685.19;5027307;28;20386;-44
2021/01/04 01:47:27;;;;;;;;;;;;;;;9.64;63.33;100682.63;5028599;28;19951;-45
2021/01/04 01:50:11;;;;;;;;;;;;;;;9.60;63.76;100674.25;5021893;28;19917;-47
2021/01/04 01:52:43;;;;;;;;;;;;;;;9.65;63.67;100677.03;5026048;28;19925;-44
2021/01/04 01:55:17;;;;;;;;;;;;;;;9.78;62.90;100675.16;5030238;28;19936;-48
2021/01/04 01:58:01;;;;;;;;;;;;;;;9.48;64.78;100681.47;5030334;28;19943;-43
2021/01/04 02:00:26;;;;;;;;;;;;;;;9.33;65.02;100692.66;5029831;28;19929;-43
2021/01/04 02:03:13;;;;;;;;;;;;;;;9.32;65.63;100695.56;5040771;28;19927;-46
2021/01/04 02:05:53;;;;;;;;;;;;;;;9.33;65.57;100692.66;5025697;28;20003;-43
2021/01/04 02:08:22;;;;;;;;;;;;;;;9.58;64.87;100681.69;5028884;28;19924;-46
2021/01/04 02:10:49;;;;;;;;;;;;;;;9.74;63.72;100684.72;5030020;28;19925;-43
2021/01/04 02:13:28;;;;;;;;;;;;;;;9.61;65.23;100683.91;5030717;28;20631;-44
2021/01/04 02:16:13;;;;;;;;;;;;;;;9.31;66.45;100686.72;5030258;28;19932;-44
2021/01/04 02:18:57;;;;;;;;;;;;;;;9.48;65.75;100676.13;5025538;28;19920;-46
2021/01/04 02:21:36;;;;;;;;;;;;;;;9.44;66.24;100699.84;5029178;28;19926;-48
2021/01/04 02:24:04;;;;;;;;;;;;;;;9.62;65.83;100692.75;5029869;28;19921;-46
2021/01/04 02:26:30;;;;;;;;;;;;;;;9.72;64.96;100682.28;5024438;28;20019;-43
2021/01/04 02:29:15;;;;;;;;;;;;;;;9.63;65.58;100683.69;5029734;28;20024;-43
2021/01/04 02:31:43;;;;;;;;;;;;;;;9.64;66.52;100679.94;5025367;28;19932;-45
2021/01/04 02:34:10;;;;;;;;;;;;;;;9.75;66.09;100673.78;5029525;28;19968;-44
2021/01/04 02:36:37;;;;;;;;;;;;;;;9.63;65.67;100670.31;5029530;28;19957;-43
2021/01/04 02:39:05;;;;;;;;;;;;;;;9.63;65.83;100675.66;5029731;28;19921;-45
2021/01/04 02:41:38;;;;;;;;;;;;;;;9.56;66.27;100685.69;5024189;28;19925;-45
2021/01/04 02:44:04;;;;;;;;;;;;;;;9.61;66.68;100683.91;5029355;28;19917;-45
2021/01/04 02:46:30;;;;;;;;;;;;;;;9.72;65.28;100684.94;5026248;28;19940;-47
2021/01/04 02:49:24;;;;;;;;;;;;;;;9.73;65.23;100683.91;5020940;28;19917;-50
2021/01/04 02:51:53;;;;;;;;;;;;;;;9.68;65.79;100680.28;5020978;28;19925;-44
2021/01/04 02:54:24;;;;;;;;;;;;;;;9.76;65.84;100678.06;5028079;28;20411;-48
2021/01/04 02:56:54;;;;;;;;;;;;;;;9.69;65.64;100676.56;5023900;28;19961;-45
2021/01/04 02:59:26;;;;;;;;;;;;;;;9.56;66.57;100685.69;5029048;28;19916;-49
2021/01/04 03:01:57;;;;;;;;;;;;;;;9.44;67.35;100688.34;5023466;28;20009;-48
2021/01/04 03:04:23;;;;;;;;;;;;;;;9.57;66.99;100674.75;5022445;28;19988;-46
2021/01/04 03:06:54;;;;;;;;;;;;;;;9.67;66.21;100671.44;5029368;28;20593;-47
2021/01/04 03:09:19;;;;;;;;;;;;;;;9.53;67.44;100675.44;5029009;28;20664;-47
2021/01/04 03:11:45;;;;;;;;;;;;;;;9.42;67.70;100671.72;5029203;28;19925;-46
2021/01/04 03:14:29;;;;;;;;;;;;;;;9.37;67.96;100675.06;5028271;28;20276;-43
2021/01/04 03:17:07;;;;;;;;;;;;;;;9.30;68.11;100677.06;5029196;28;19925;-45
2021/01/04 03:19:34;;;;;;;;;;;;;;;9.49;67.70;100664.38;5023443;28;20025;-47
2021/01/04 03:22:03;;;;;;;;;;;;;;;9.46;67.12;100662.97;5028809;28;19924;-47
2021/01/04 03:24:28;;;;;;;;;;;;;;;9.48;66.83;100661.94;5028661;28;19921;-43
2021/01/04 03:26:57;;;;;;;;;;;;;;;9.49;66.28;100652.88;5028496;28;20316;-46
2021/01/04 03:29:22;;;;;;;;;;;;;;;9.40;66.98;100658.56;5028559;28;20421;-45
2021/01/04 03:31:47;;;;;;;;;;;;;;;9.38;68.18;100658.00;5028881;28;19925;-47
2021/01/04 03:34:13;;;;;;;;;;;;;;;9.51;67.07;100653.44;5028437;28;19944;-45
2021/01/04 03:36:38;;;;;;;;;;;;;;;9.39;68.35;100651.56;5028581;28;19925;-46
2021/01/04 03:39:03;;;;;;;;;;;;;;;9.26;68.30;100655.31;5027690;28;19916;-44
2021/01/04 03:41:29;;;;;;;;;;;;;;;9.18;68.99;100655.63;5028357;28;19932;-45
2021/01/04 03:43:55;;;;;;;;;;;;;;;9.22;68.57;100661.34;5027563;28;19923;-43
2021/01/04 03:46:20;;;;;;;;;;;;;;;9.38;68.17;100657.16;5028643;28;19929;-46
2021/01/04 03:48:45;;;;;;;;;;;;;;;9.27;68.05;100669.50;5023374;28;20565;-46
2021/01/04 03:51:11;;;;;;;;;;;;;;;9.25;68.51;100652.84;5016033;28;19925;-44
2021/01/04 03:53:36;;;;;;;;;;;;;;;9.52;66.96;100644.34;5023674;28;19923;-43
2021/01/04 03:56:01;;;;;;;;;;;;;;;9.67;66.76;100641.19;5028594;28;19976;-48
2021/01/04 03:58:27;;;;;;;;;;;;;;;9.48;67.48;100638.66;5028223;28;19948;-46
2021/01/04 04:00:52;;;;;;;;;;;;;;;9.56;67.40;100635.63;5028711;28;20003;-42
2021/01/04 04:03:17;;;;;;;;;;;;;;;9.57;67.60;100658.69;5028242;28;20081;-46
2021/01/04 04:05:43;;;;;;;;;;;;;;;9.48;68.05;100681.47;5028219;28;20288;-46
2021/01/04 04:08:08;;;;;;;;;;;;;;;9.40;67.29;100695.22;5028047;28;19917;-43
2021/01/04 04:10:33;;;;;;;;;;;;;;;9.30;67.10;100694.97;5028224;28;19925;-47
2021/01/04 04:12:59;;;;;;;;;;;;;;;9.23;67.99;100693.22;5022659;28;19918;-43
2021/01/04 04:15:25;;;;;;;;;;;;;;;9.11;66.32;100681.69;5013799;28;19993;-45
2021/01/04 04:17:50;;;;;;;;;;;;;;;9.21;66.01;100687.28;5024911;28;20004;-43
2021/01/04 04:20:17;;;;;;;;;;;;;;;8.89;66.87;100679.56;5027814;28;20510;-45
2021/01/04 04:22:45;;;;;;;;;;;;;;;8.58;68.00;100687.84;5027608;28;20272;-44
2021/01/04 04:25:13;;;;;;;;;;;;;;;8.59;66.79;100710.84;5027807;28;19913;-48
2021/01/04 04:27:38;;;;;;;;;;;;;;;8.60;67.04;100733.88;5028100;28;19952;-45
2021/01/04 04:30:05;;;;;;;;;;;;;;;8.65;67.60;100742.03;5028046;28;19967;-47
2021/01/04 04:32:30;;;;;;;;;;;;;;;8.75;67.86;100728.09;5022105;28;20268;-46
2021/01/04 04:34:55;;;;;;;;;;;;;;;8.49;68.43;100722.91;5027618;28;19927;-45
2021/01/04 04:37:20;;;;;;;;;;;;;;;8.56;68.17;100716.66;5027752;28;19975;-49
2021/01/04 04:39:46;;;;;;;;;;;;;;;8.54;68.30;100702.69;5027839;28;19917;-50
2021/01/04 04:42:13;;;;;;;;;;;;;;;8.63;68.10;100718.19;5027514;28;20327;-46
2021/01/04 04:44:38;;;;;;;;;;;;;;;8.43;68.52;100713.13;5026971;28;19964;-46
2021/01/04 04:47:12;;;;;;;;;;;;;;;8.29;68.67;100717.78;5028022;28;19964;-48
2021/01/04 04:49:58;;;;;;;;;;;;;;;8.27;69.08;100713.69;5023020;28;19921;-44
2021/01/04 04:52:23;;;;;;;;;;;;;;;8.32;69.22;100697.81;5026443;28;19928;-50
2021/01/04 04:54:54;;;;;;;;;;;;;;;8.35;68.66;100688.56;5027580;28;20386;-45
2021/01/04 04:57:20;;;;;;;;;;;;;;;8.20;68.93;100691.59;5031619;28;19925;-48
2021/01/04 04:59:54;;;;;;;;;;;;;;;8.32;68.48;100695.94;5031390;28;19932;-44
2021/01/04 05:02:38;;;;;;;;;;;;;;;8.35;68.97;100692.03;5030249;28;20314;-44
2021/01/04 05:05:09;;;;;;;;;;;;;;;8.29;68.76;100685.75;5031551;28;19929;-46
2021/01/04 05:07:45;;;;;;;;;;;;;;;8.42;68.40;100686.59;5026180;28;20298;-44
2021/01/04 05:10:13;;;;;;;;;;;;;;;8.35;69.27;100677.88;5030857;28;19917;-45
2021/01/04 05:12:59;;;;;;;;;;;;;;;8.29;68.86;100685.75;5030906;28;19917;-44
2021/01/04 05:15:31;;;;;;;;;;;;;;;8.29;69.78;100685.75;5028858;28;19916;-48
2021/01/04 05:18:16;;;;;;;;;;;;;;;8.22;69.45;100687.69;5031400;28;19917;-45
2021/01/04 05:20:47;;;;;;;;;;;;;;;8.15;69.90;100686.91;5027031;28;19924;-44
2021/01/04 05:23:12;;;;;;;;;;;;;;;8.21;70.33;100686.03;5034535;28;20644;-47
2021/01/04 05:25:56;;;;;;;;;;;;;;;8.18;70.19;100691.81;5028779;28;19932;-46
2021/01/04 05:28:21;;;;;;;;;;;;;;;8.24;69.80;100690.94;5029950;28;19917;-50
2021/01/04 05:30:59;;;;;;;;;;;;;;;8.11;69.78;100694.56;5031229;28;19925;-49
2021/01/04 05:33:27;;;;;;;;;;;;;;;8.17;69.92;100690.22;5030721;28;19921;-47
2021/01/04 05:35:56;;;;;;;;;;;;;;;8.23;69.88;100694.63;5030316;28;19982;-47
2021/01/04 05:38:31;;;;;;;;;;;;;;;8.22;69.97;100698.38;5030579;28;20375;-46
2021/01/04 05:41:02;;;;;;;;;;;;;;;8.07;70.23;100688.06;5030742;28;20627;-47
2021/01/04 05:43:40;;;;;;;;;;;;;;;8.18;69.92;100686.47;5030708;28;19984;-45
2021/01/04 05:46:14;;;;;;;;;;;;;;;8.11;69.81;100677.72;5030446;28;20321;-43
2021/01/04 05:48:45;;;;;;;;;;;;;;;7.95;70.11;100674.63;5030721;28;19917;-45
2021/01/04 05:51:20;;;;;;;;;;;;;;;7.89;70.31;100680.88;5029591;28;20385;-47
2021/01/04 05:53:46;;;;;;;;;;;;;;;7.69;70.81;100674.94;5030114;28;19917;-46
2021/01/04 05:56:18;;;;;;;;;;;;;;;7.87;70.34;100677.63;5030374;28;19929;-47
2021/01/04 05:58:43;;;;;;;;;;;;;;;7.85;69.85;100684.19;5030314;28;19960;-43
2021/01/04 06:01:13;;;;;;;;;;;;;;;7.64;70.90;100683.59;5030592;28;19956;-47
2021/01/04 06:03:38;;;;;;;;;;;;;;;7.80;70.62;100686.72;5030375;28;19991;-45
2021/01/04 06:06:08;;;;;;;;;;;;;;;7.86;70.07;100681.31;5030021;28;20371;-44
2021/01/04 06:08:33;;;;;;;;;;;;;;;7.79;70.42;100685.91;5024152;28;19921;-51
2021/01/04 06:11:09;;;;;;;;;;;;;;;7.92;69.64;100683.09;5030248;28;20421;-45
2021/01/04 06:13:39;;;;;;;;;;;;;;;7.87;69.54;100687.44;5025088;28;19921;-49
2021/01/04 06:16:15;;;;;;;;;;;;;;;7.79;69.84;100679.75;5023987;28;19921;-47
2021/01/04 06:18:49;;;;;;;;;;;;;;;7.75;70.08;100679.41;5019903;28;19927;-45
2021/01/04 06:21:29;;;;;;;;;;;;;;;7.81;70.42;100678.50;5027664;28;19932;-47
2021/01/04 06:23:59;;;;;;;;;;;;;;;7.72;70.36;100685.16;5018545;28;20082;-47
2021/01/04 06:26:25;;;;;;;;;;;;;;;7.70;70.38;100681.91;5030028;28;20012;-46
2021/01/04 06:28:57;;;;;;;;;;;;;;;7.64;70.51;100690.78;5030218;28;19921;-44
2021/01/04 06:31:44;;;;;;;;;;;;;;;7.47;70.98;100687.84;5029978;28;20577;-45
2021/01/04 06:34:15;;;;;;;;;;;;;;;7.45;70.94;100688.09;5028375;28;20328;-47
2021/01/04 06:36:40;;;;;;;;;;;;;;;7.50;71.17;100692.75;5029077;28;19947;-46
2021/01/04 06:39:11;;;;;;;;;;;;;;;7.46;70.95;100694.25;5028263;28;20371;-45
2021/01/04 06:41:37;;;;;;;;;;;;;;;7.35;71.31;100693.94;5029270;28;19988;-49
2021/01/04 06:44:13;;;;;;;;;;;;;;;7.46;71.41;100692.38;5029605;28;19921;-45
2021/01/04 06:46:41;;;;;;;;;;;;;;;7.53;70.76;100692.34;5024496;28;20008;-46
2021/01/04 06:49:13;;;;;;;;;;;;;;;7.56;70.83;100699.91;5029477;28;20334;-48
2021/01/04 06:51:45;;;;;;;;;;;;;;;7.38;71.33;100701.50;5029512;28;19924;-46
2021/01/04 06:54:19;;;;;;;;;;;;;;;7.48;71.22;100695.66;5029608;28;19917;-44
2021/01/04 06:56:47;;;;;;;;;;;;;;;7.46;71.37;100696.91;5029300;28;19931;-43
2021/01/04 06:59:36;;;;;;;;;;;;;;;7.42;71.54;100688.53;5026376;28;20048;-44
2021/01/04 07:02:04;;;;;;;;;;;;;;;7.29;71.75;100708.16;5027086;28;19929;-45
2021/01/04 07:04:48;;;;;;;;;;;;;;;7.29;72.24;100701.97;5026091;28;19916;-45
2021/01/04 07:07:32;;;;;;;;;;;;;;;7.58;71.44;100692.50;5026352;28;19925;-44
2021/01/04 07:10:06;;;;;;;;;;;;;;;7.64;70.92;100678.25;5028229;28;19939;-43
2021/01/04 07:13:04;;;;;;;;;;;;;;;7.44;71.56;100678.47;5023393;28;19924;-44
2021/01/04 07:15:31;;;;;;;;;;;;;;;7.60;71.15;100681.59;5021213;28;20007;-44
2021/01/04 07:18:14;;;;;;;;;;;;;;;7.61;71.31;100691.22;5019807;28;19928;-45
2021/01/04 07:20:40;;;;;;;;;;;;;;;7.56;71.54;100687.38;5024179;28;19925;-45
2021/01/04 07:23:23;;;;;;;;;;;;;;;7.52;71.81;100688.03;5031423;28;19913;-44
2021/01/04 07:25:52;;;;;;;;;;;;;;;7.79;71.43;100683.25;5030722;28;19928;-48
2021/01/04 07:29:38;;;;;;;13.30;11.70;;;;;;;7.76;71.80;100683.69;5062628;28;20726;-47
2021/01/04 07:32:23;;;;;;;20.13;12.95;;;;;;;7.76;71.72;100681.81;5060022;28;20118;-45
2021/01/04 07:34:56;;;;;;;24.23;15.93;;;;;;;7.52;72.01;100686.19;5043877;28;20045;-48
2021/01/04 07:38:01;;;;;;;26.95;17.42;;;;;;;7.70;72.19;100677.38;5046745;28;20119;-44
2021/01/04 07:40:52;;;;;;;20.33;11.07;;;;;;;7.70;72.05;100685.38;5039096;28;20088;-48
2021/01/04 07:43:40;;;;;;;17.45;10.77;;;;;;;7.67;71.68;100679.66;5042433;28;20064;-42
2021/01/04 07:46:23;;;;;;;14.48;10.70;;;;;;;7.78;71.76;100673.59;5045896;28;20115;-43
2021/01/04 07:49:07;;;;;;;18.15;16.30;;;;;;;7.84;71.62;100672.72;5055962;28;20148;-43
2021/01/04 07:52:10;;;;;;;16.73;15.13;;;;;;;7.72;72.11;100669.16;5039103;28;20064;-46
2021/01/04 07:54:51;;;;;;;24.67;16.48;;;;;;;7.57;72.80;100673.00;5040140;28;20471;-42
2021/01/04 07:57:43;;;;;;;30.33;27.30;;;;;;;7.68;72.76;100678.63;5044147;28;20108;-46
2021/01/04 08:00:12;;;;;;;19.52;14.27;;;;;;;8.01;71.49;100678.28;5046494;28;20540;-44
2021/01/04 08:02:37;;;;;;;6.07;4.55;;;;;;;8.20;71.40;100676.38;5048481;28;20036;-45
2021/01/04 08:05:31;;;;;;;24.33;15.55;;;;;;;8.25;71.41;100684.53;5046183;28;20444;-44
2021/01/04 08:08:34;;;;;;;21.42;18.88;;;;;;;8.08;72.01;100691.53;5046273;28;20029;-44
2021/01/04 08:11:20;;;;;;;19.00;16.90;;;;;;;7.98;72.21;100693.91;5045952;28;20044;-43
2021/01/04 08:14:16;;;;;;;24.38;19.10;;;;;;;7.90;72.69;100693.16;5045342;28;20044;-46
2021/01/04 08:16:46;;;;;;;22.20;17.15;;;;;;;7.94;72.53;100704.22;5046763;28;20032;-43
2021/01/04 08:19:16;;;;;;;20.65;14.73;;;;;;;8.09;72.26;100717.22;5048552;28;20061;-42
2021/01/04 08:21:54;;;;;;;21.38;12.35;;;;;;;8.03;72.91;100710.91;5046446;28;20040;-44
2021/01/04 08:24:28;;;;;;;15.18;12.52;;;;;;;8.21;72.54;100706.59;5056570;28;20041;-43
2021/01/04 08:27:36;;;;;;;30.25;15.63;;;;;;;8.22;72.29;100722.41;5048684;28;20071;-43
2021/01/04 08:30:22;;;;;;;22.67;16.27;;;;;;;8.21;72.13;100712.75;5049017;28;20136;-43
2021/01/04 08:33:15;;;;;;;11.77;9.70;;;;;;;8.38;71.53;100720.97;5043907;28;20123;-45
2021/01/04 08:35:44;;;;;;;10.85;9.55;;;;;;;-146.19;100.00;63747.78;5041853;28;20049;-65
2021/01/04 08:38:29;;;;;;;12.88;8.38;;;;;;;-146.19;100.00;63747.78;5046420;28;20083;-66
2021/01/04 08:41:06;;;;;;;16.75;15.07;;;;;;;-146.19;100.00;63747.78;5033561;28;20042;-67
2021/01/04 08:43:44;;;;;;;18.77;15.07;;;;;;;-146.19;100.00;63747.78;5041189;28;20112;-67
2021/01/04 08:46:19;;;;;;;27.30;17.70;;;;;;;-146.19;100.00;63747.78;5046050;28;20037;-71
2021/01/04 08:48:45;;;;;;;17.20;15.27;;;;;;;-146.19;100.00;63747.78;5048206;28;20067;-73
2021/01/04 08:51:12;;;;;;;19.58;17.52;;;;;;;-146.19;100.00;63747.78;5046300;28;20038;-66
2021/01/04 08:53:38;;;;;;;22.02;17.70;;;;;;;-146.19;100.00;63747.78;5048455;28;20032;-65
2021/01/04 08:56:27;;;;;;;17.73;15.82;;;;;;;-146.19;100.00;63747.78;5034106;28;20426;-67
2021/01/04 08:59:09;;;;;;;26.27;23.75;;;;;;;-146.19;100.00;63747.78;5036139;28;20128;-67
2021/01/04 09:01:35;;;;;;;21.75;19.52;;;;;;;-146.19;100.00;63747.78;5025629;28;20083;-68
2021/01/04 09:04:07;;;;;;;22.83;17.33;;;;;;;-146.19;100.00;63747.78;5029883;28;20482;-68
2021/01/04 09:06:35;;;;;;;;;;;;;;;-146.19;100.00;63747.78;5024685;28;20034;-67
2021/01/04 09:09:09;;;;;;;17.15;13.32;;;;;;;-146.19;100.00;63747.78;5030014;28;20407;-66
2021/01/04 09:11:41;;;;;;;21.30;18.98;;;;;;;-146.19;100.00;63747.78;5024478;28;20033;-67
2021/01/04 09:14:19;;;;;;;17.20;14.23;;;;;;;-146.19;100.00;63747.78;5029600;28;20064;-55
2021/01/04 09:16:47;;;;;;;20.08;16.30;;;;;;;-146.19;100.00;63747.78;5029455;28;20112;-57
2021/01/04 09:19:18;;;;;;;23.33;15.50;;;;;;;-146.19;100.00;63747.78;5029415;28;20049;-67
2021/01/04 09:21:45;;;;;;;27.48;24.40;;;;;;;-146.19;100.00;63747.78;5029071;28;20067;-66
2021/01/04 09:24:22;;;;;;;51.42;39.42;;;;;;;-146.19;100.00;63747.78;5029492;28;20042;-67
2021/01/04 09:26:48;;;;;;;44.08;38.22;;;;;;;-146.19;100.00;63747.78;5028938;28;20073;-69
2021/01/04 09:29:55;;;;;;;42.90;35.38;;;;;;;-146.19;100.00;63747.78;5030929;28;20054;-66
2021/01/04 09:32:39;;;;;;;47.25;42.58;;;;;;;-146.19;100.00;63747.78;5028008;28;20061;-66
2021/01/04 09:35:08;;;;;;;47.22;42.13;;;;;;;-146.19;100.00;63747.78;5029840;28;20087;-67
2021/01/04 09:37:37;;;;;;;49.80;39.03;;;;;;;-146.19;100.00;63747.78;5027270;28;20049;-65
2021/01/04 09:40:10;;;;;;;45.30;36.58;;;;;;;-146.19;100.00;63747.78;5029340;28;20115;-68
2021/01/04 09:42:36;;;;;;;36.42;31.83;;;;;;;-146.19;100.00;63747.78;5027882;28;20160;-67
2021/01/04 09:45:16;;;;;;;39.47;35.05;;;;;;;-146.19;100.00;63747.78;5029509;28;20041;-64
2021/01/04 09:47:47;;;;;;;34.28;30.45;;;;;;;-146.19;100.00;63747.78;5028467;28;20363;-63
2021/01/04 09:50:56;;;;;;;30.75;27.40;;;;;;;-146.19;100.00;63747.78;5039845;28;20123;-63
2021/01/04 09:53:32;;;;;;;22.80;20.48;;;;;;;-146.19;100.00;63747.78;5006451;28;20045;-64
2021/01/04 09:56:11;;;;;;;24.65;17.35;;;;;;;-146.19;100.00;63747.78;5005683;28;20057;-62
2021/01/04 09:58:38;;;;;;;26.48;23.70;;;;;;;-146.19;100.00;63747.78;5015598;28;20433;-63
2021/01/04 10:01:16;;;;;;;25.15;21.50;;;;;;;-146.19;100.00;63747.78;5028916;28;20117;-62
2021/01/04 10:03:57;;;;;;;17.55;15.80;;;;;;;-146.19;100.00;63747.78;5024997;28;20128;-62
2021/01/04 10:06:25;;;;;;;24.53;14.87;;;;;;;-146.19;100.00;63747.78;5035609;28;20080;-61
2021/01/04 10:08:51;;;;;;;14.27;12.82;;;;;;;-146.19;100.00;63747.78;5029022;28;20300;-62
2021/01/04 10:11:22;;;;;;;12.30;9.07;;;;;;;-146.19;100.00;63747.78;5028779;28;20044;-62
2021/01/04 10:13:50;;;;;;;10.27;5.67;;;;;;;-146.19;100.00;63747.78;5028974;28;20042;-63
2021/01/04 10:16:21;;;;;;;5.95;4.43;;;;;;;-146.19;100.00;63747.78;5028865;28;20045;-62
2021/01/04 10:18:50;;;;;;;;;;;;;;;-146.19;100.00;63747.78;5029377;28;20045;-65
2021/01/04 10:21:28;;;;;;;13.05;10.68;;;;;;;-146.19;100.00;63747.78;5034515;28;19912;-64
2021/01/04 10:23:59;;;;;;;16.13;10.85;;;;;;;-146.19;100.00;63747.78;5028611;28;20041;-62
2021/01/04 10:26:26;;;;;;;19.40;16.50;;;;;;;-146.19;100.00;63747.78;5028129;28;20043;-60
2021/01/04 10:28:52;;;;;;;18.33;16.63;;;;;;;-146.19;100.00;63747.78;5028014;28;20061;-62
2021/01/04 10:31:23;;;;;;;13.75;12.45;;;;;;;-146.19;100.00;63747.78;5028065;28;20426;-62
2021/01/04 10:33:49;;;;;;;12.10;10.88;;;;;;;-146.19;100.00;63747.78;5028144;28;20033;-62
2021/01/04 10:36:14;;;;;;;26.75;20.45;;;;;;;-146.19;100.00;63747.78;5027993;28;20426;-61
2021/01/04 10:38:44;;;;;;;18.40;16.50;;;;;;;-146.19;100.00;63747.78;5028451;28;20056;-62
2021/01/04 10:41:14;;;;;;;22.70;20.35;;;;;;;-146.19;100.00;63747.78;5028460;28;20389;-60
2021/01/04 10:43:40;;;;;;;19.02;15.27;;;;;;;-146.19;100.00;63747.78;5028491;28;20050;-60
2021/01/04 10:46:14;;;;;;;18.73;17.05;;;;;;;-146.19;100.00;63747.78;5028014;28;20033;-60
2021/01/04 10:48:54;;;;;;;12.18;10.88;;;;;;;-146.19;100.00;63747.78;5028012;28;20107;-61
2021/01/04 10:51:23;;;;;;;15.98;10.80;;;;;;;-146.19;100.00;63747.78;5028333;28;20090;-63
2021/01/04 10:53:49;;;;;;;17.30;11.77;;;;;;;-146.19;100.00;63747.78;5028142;28;20049;-63
2021/01/04 10:56:14;;;;;;;12.13;10.20;;;;;;;-146.19;100.00;63747.78;5027766;28;20475;-63
2021/01/04 10:59:12;;;;;;;10.48;9.48;;;;;;;-146.19;100.00;63747.78;5028091;28;20470;-63
2021/01/04 11:01:42;;;;;;;15.48;12.85;;;;;;;-146.19;100.00;63747.78;5010959;28;20118;-64
2021/01/04 11:04:16;;;;;;;26.88;23.85;;;;;;;-146.19;100.00;63747.78;5040626;28;20485;-63
2021/01/04 11:06:58;;;;;;;25.02;22.13;;;;;;;-146.19;100.00;63747.78;5032633;28;20037;-62
2021/01/04 11:09:28;;;;;;;;;;;;;;;-146.19;100.00;63747.78;5041718;28;20037;-63
2021/01/04 11:12:08;;;;;;;31.58;20.38;;;;;;;-146.19;100.00;63747.78;5032089;28;19923;-56
2021/01/04 11:14:33;;;;;;;18.30;16.33;;;;;;;-146.19;100.00;63747.78;5022996;28;20045;-59
2021/01/04 11:17:10;;;;;;;18.13;13.90;;;;;;;-146.19;100.00;63747.78;5026079;28;20044;-58
2021/01/04 11:19:37;;;;;;;14.13;10.95;;;;;;;-146.19;100.00;63747.78;5026062;28;20620;-57
2021/01/04 11:22:10;;;;;;;243.30;183.70;;;;;;;-146.19;100.00;63747.78;5030699;28;20132;-58
2021/01/04 11:24:36;;;;;;;46.83;42.17;;;;;;;-146.19;100.00;63747.78;5023187;28;20497;-60
2021/01/04 11:27:01;;;;;;;35.95;32.13;;;;;;;-146.19;100.00;63747.78;5027239;28;20115;-60
2021/01/04 11:29:27;;;;;;;16.25;13.23;;;;;;;-146.19;100.00;63747.78;5027046;28;20053;-59
2021/01/04 11:31:52;;;;;;;17.33;13.48;;;;;;;-146.19;100.00;63747.78;5027475;28;20040;-58
2021/01/04 11:34:18;;;;;;;12.68;11.43;;;;;;;-146.19;100.00;63747.78;5027820;28;20060;-60
2021/01/04 11:36:43;;;;;;;7.32;6.35;;;;;;;-146.19;100.00;63747.78;5027558;28;20114;-60
2021/01/04 11:39:08;;;;;;;8.23;6.60;;;;;;;-146.19;100.00;63747.78;5027525;28;20048;-60
2021/01/04 11:41:34;;;;;;;14.95;13.40;;;;;;;-146.19;100.00;63747.78;5027205;28;20048;-62
2021/01/04 11:43:59;;;;;;;10.45;8.85;;;;;;;-146.19;100.00;63747.78;5027889;28;20570;-59
2021/01/04 11:46:25;;;;;;;8.45;6.63;;;;;;;-146.19;100.00;63747.78;5027328;28;20095;-60
2021/01/04 11:48:50;;;;;;;8.60;5.78;;;;;;;-146.19;100.00;63747.78;5027632;28;20048;-61
2021/01/04 11:51:20;;;;;;;15.77;13.02;;;;;;;-146.19;100.00;63747.78;5027029;28;20067;-60
2021/01/04 11:53:47;;;;;;;12.40;10.68;;;;;;;-146.19;100.00;63747.78;5027361;28;20044;-59
2021/01/04 11:56:12;;;;;;;15.43;13.85;;;;;;;-146.19;100.00;63747.78;5026955;28;20482;-59
2021/01/04 11:58:39;;;;;;;13.73;12.40;;;;;;;-146.19;100.00;63747.78;5027618;28;20048;-59
2021/01/04 12:01:05;;;;;;;17.23;15.60;;;;;;;-146.19;100.00;63747.78;5027084;28;20029;-60
2021/01/04 12:03:31;;;;;;;22.77;19.58;;;;;;;-146.19;100.00;63747.78;5021742;28;20029;-60
2021/01/04 12:05:56;;;;;;;19.98;17.35;;;;;;;-146.19;100.00;63747.78;5027122;28;20419;-59
2021/01/04 12:08:22;;;;;;;21.67;17.35;;;;;;;-146.19;100.00;63747.78;5026991;28;20149;-60
2021/01/04 12:10:48;;;;;;;24.38;16.15;;;;;;;-146.19;100.00;63747.78;5027027;28;20488;-60
2021/01/04 12:13:13;;;;;;;29.42;17.83;;;;;;;-146.19;100.00;63747.78;5038109;28;20042;-60
2021/01/04 12:15:38;;;;;;;17.80;13.60;;;;;;;-146.19;100.00;63747.78;5041816;28;20124;-59
2021/01/04 12:18:04;;;;;;;9.82;7.65;;;;;;;-146.19;100.00;63747.78;5031055;28;20053;-60
2021/01/04 12:20:30;;;;;;;17.70;15.82;;;;;;;-146.19;100.00;63747.78;5030420;28;20463;-60
2021/01/04 12:22:55;;;;;;;20.35;8.25;;;;;;;-146.19;100.00;63747.78;5030662;28;20390;-60
2021/01/04 12:25:21;;;;;;;10.95;8.82;;;;;;;-146.19;100.00;63747.78;5030462;28;20516;-59
2021/01/04 12:27:46;;;;;;;23.15;20.65;;;;;;;-146.19;100.00;63747.78;5030370;28;20112;-60
2021/01/04 12:30:12;;;;;;;14.88;10.63;;;;;;;-146.19;100.00;63747.78;5030766;28;20022;-64